Time;durP1;ratioP1;P1;durP2;ratioP2;P2;SDS_P1;SDS_P2;PMS_P1;PMS_P2;Temp;Humidity;BMP_temperature;BMP_pressure;BME280_temperature;BME280_humidity;BME280_pressure;Samples;Min_cycle;Max_cycle;Signal;HPM_P1;HPM_P2
2021/08/29 00:00:12;;;;;;;3.13;2.83;;;18.90;89.10;;;;;;5094815;28;20070;-85
2021/08/29 00:02:38;;;;;;;3.05;2.75;;;18.90;89.10;;;;;;5096452;28;20475;-85
2021/08/29 00:05:05;;;;;;;2.58;2.38;;;18.90;89.10;;;;;;5095326;28;20039;-85
2021/08/29 00:07:31;;;;;;;3.45;2.95;;;18.90;89.10;;;;;;5094792;28;20108;-85
2021/08/29 00:09:57;;;;;;;3.53;2.88;;;18.90;89.40;;;;;;5096160;28;20107;-84
2021/08/29 00:12:23;;;;;;;2.85;2.65;;;18.80;89.20;;;;;;5094650;28;20048;-85
2021/08/29 00:14:48;;;;;;;3.90;3.25;;;18.90;89.60;;;;;;5095975;28;20024;-85
2021/08/29 00:17:14;;;;;;;3.70;3.30;;;18.80;89.80;;;;;;5094768;28;20067;-84
2021/08/29 00:19:40;;;;;;;3.90;3.25;;;18.80;90.00;;;;;;5094683;28;20505;-85
2021/08/29 00:22:06;;;;;;;3.92;3.10;;;18.80;90.00;;;;;;5095965;28;20056;-84
2021/08/29 00:24:32;;;;;;;3.63;3.33;;;18.70;90.20;;;;;;5094469;28;20034;-85
2021/08/29 00:26:57;;;;;;;3.80;3.35;;;18.70;90.40;;;;;;5094510;28;20020;-85
2021/08/29 00:29:23;;;;;;;4.88;3.72;;;18.60;90.40;;;;;;5094256;28;20372;-84
2021/08/29 00:31:49;;;;;;;4.07;3.67;;;18.70;90.60;;;;;;5095686;28;20070;-85
2021/08/29 00:34:15;;;;;;;4.18;2.92;;;18.60;90.50;;;;;;5095675;28;20020;-85
2021/08/29 00:36:40;;;;;;;3.20;2.67;;;18.60;90.70;;;;;;5094177;28;20027;-85
2021/08/29 00:39:06;;;;;;;3.58;3.28;;;18.60;90.90;;;;;;5094370;28;20020;-85
2021/08/29 00:41:32;;;;;;;3.55;2.80;;;18.50;91.00;;;;;;5095530;28;20050;-85
2021/08/29 00:43:57;;;;;;;3.13;2.83;;;18.50;91.10;;;;;;5094103;28;20060;-84
2021/08/29 00:46:24;;;;;;;2.92;2.63;;;18.50;91.00;;;;;;5095311;28;20487;-85
2021/08/29 00:48:51;;;;;;;3.55;3.17;;;18.50;91.20;;;;;;5095371;28;20103;-85
2021/08/29 00:51:18;;;;;;;3.58;3.28;;;18.50;91.40;;;;;;5096318;28;20028;-85
2021/08/29 00:53:48;;;;;;;3.88;3.33;;;18.40;91.50;;;;;;5098660;28;20040;-84
2021/08/29 00:56:15;;;;;;;3.45;3.15;;;18.40;92.10;;;;;;5098759;28;20118;-84
2021/08/29 00:58:42;;;;;;;3.58;3.25;;;18.40;91.70;;;;;;5099683;28;20115;-85
2021/08/29 01:01:09;;;;;;;3.47;2.75;;;18.30;91.60;;;;;;5097618;28;20104;-84
2021/08/29 01:03:36;;;;;;;2.72;2.53;;;18.30;91.60;;;;;;5097198;28;20028;-85
2021/08/29 01:06:18;;;;;;;3.00;2.67;;;18.30;91.60;;;;;;5094212;28;20074;-85
2021/08/29 01:08:50;;;;;;;2.88;2.58;;;18.30;91.90;;;;;;5093771;28;20173;-85
2021/08/29 01:11:18;;;;;;;4.13;2.92;;;18.40;91.70;;;;;;5093270;28;20090;-85
2021/08/29 01:13:46;;;;;;;2.80;2.60;;;18.40;91.70;;;;;;5093939;28;20531;-85
2021/08/29 01:16:18;;;;;;;3.13;2.70;;;18.50;91.60;;;;;;5094878;28;20375;-85
2021/08/29 01:18:47;;;;;;;3.20;2.90;;;18.60;91.40;;;;;;5094770;28;20107;-84
2021/08/29 01:21:16;;;;;;;2.70;2.50;;;18.60;91.30;;;;;;5093528;28;20115;-84
2021/08/29 01:23:49;;;;;;;7.63;2.67;;;18.70;91.10;;;;;;5094691;28;20020;-85
2021/08/29 01:26:17;;;;;;;3.70;2.95;;;18.70;91.00;;;;;;5094513;28;20403;-84
2021/08/29 01:28:56;;;;;;;4.00;3.20;;;18.70;90.90;;;;;;5093505;28;20028;-85
2021/08/29 01:31:24;;;;;;;3.22;2.92;;;18.80;90.80;;;;;;5094474;28;20517;-84
2021/08/29 01:33:51;;;;;;;2.80;2.60;;;18.70;90.70;;;;;;5094309;28;20036;-84
2021/08/29 01:36:19;;;;;;;3.10;2.70;;;18.70;90.70;;;;;;5094508;28;20028;-85
2021/08/29 01:38:46;;;;;;;3.28;2.95;;;18.70;90.80;;;;;;5094483;28;20103;-85
2021/08/29 01:41:14;;;;;;;3.58;2.60;;;18.70;90.80;;;;;;5093357;28;20133;-85
2021/08/29 01:43:41;;;;;;;2.95;2.70;;;18.70;90.80;;;;;;5094357;28;20030;-85
2021/08/29 01:46:08;;;;;;;3.00;2.70;;;18.70;90.80;;;;;;5092955;28;20489;-85
2021/08/29 01:48:38;;;;;;;2.97;2.50;;;18.70;91.00;;;;;;5093093;28;20028;-84
2021/08/29 01:51:04;;;;;;;2.55;2.35;;;18.60;91.00;;;;;;5094325;28;20048;-85
2021/08/29 01:53:30;;;;;;;3.33;3.03;;;18.60;91.10;;;;;;5094329;28;20036;-85
2021/08/29 01:55:56;;;;;;;2.90;2.70;;;18.60;91.20;;;;;;5094438;28;20028;-84
2021/08/29 01:58:21;;;;;;;3.15;2.83;;;18.60;91.20;;;;;;5092600;28;20127;-85
2021/08/29 02:00:58;;;;;;;2.70;2.47;;;18.60;91.20;;;;;;5093907;28;20170;-85
2021/08/29 02:03:25;;;;;;;3.10;2.78;;;18.70;91.30;;;;;;5092819;28;20506;-85
2021/08/29 02:05:56;;;;;;;2.70;2.50;;;18.70;91.00;;;;;;5092747;28;20035;-85
2021/08/29 02:08:25;;;;;;;3.53;2.95;;;18.80;91.00;;;;;;5093290;28;20020;-85
2021/08/29 02:10:52;;;;;;;3.17;2.42;;;18.80;90.90;;;;;;5093879;28;20024;-85
2021/08/29 02:13:22;;;;;;;3.63;3.10;;;18.90;90.80;;;;;;5093630;28;20479;-85
2021/08/29 02:16:02;;;;;;;2.78;2.58;;;18.80;90.70;;;;;;5093759;28;20030;-85
2021/08/29 02:18:32;;;;;;;3.28;2.97;;;18.80;90.80;;;;;;5092492;28;20024;-85
2021/08/29 02:20:59;;;;;;;3.20;2.60;;;18.80;90.70;;;;;;5092593;28;20098;-85
2021/08/29 02:23:27;;;;;;;3.30;3.00;;;18.80;90.70;;;;;;5092414;28;20028;-85
2021/08/29 02:25:53;;;;;;;3.03;2.72;;;18.80;90.60;;;;;;5092422;28;20443;-84
2021/08/29 02:28:19;;;;;;;4.07;2.47;;;18.90;90.60;;;;;;5092216;28;20093;-84
2021/08/29 02:30:45;;;;;;;4.13;2.50;;;19.00;90.60;;;;;;5093825;28;20020;-85
2021/08/29 02:33:11;;;;;;;3.13;2.80;;;19.00;90.40;;;;;;5093611;28;20035;-85
2021/08/29 02:35:39;;;;;;;5.70;3.20;;;19.10;90.30;;;;;;5092480;28;20115;-84
2021/08/29 02:38:06;;;;;;;3.53;2.92;;;19.10;90.10;;;;;;5092370;28;20074;-84
2021/08/29 02:40:38;;;;;;;2.53;2.33;;;19.10;90.10;;;;;;5092244;28;20035;-85
2021/08/29 02:43:04;;;;;;;2.70;2.50;;;19.20;90.10;;;;;;5092303;28;20024;-84
2021/08/29 02:45:30;;;;;;;3.92;2.63;;;19.20;89.60;;;;;;5092306;28;20140;-84
2021/08/29 02:47:56;;;;;;;2.75;2.50;;;19.20;89.10;;;;;;5092194;28;20111;-85
2021/08/29 02:50:22;;;;;;;2.88;2.60;;;19.30;89.00;;;;;;5093762;28;20028;-85
2021/08/29 02:52:49;;;;;;;2.45;2.25;;;19.30;89.10;;;;;;5093514;28;20032;-85
2021/08/29 02:55:15;;;;;;;2.60;2.40;;;19.30;88.90;;;;;;5092133;28;20134;-85
2021/08/29 02:57:45;;;;;;;2.47;2.28;;;19.40;88.80;;;;;;5092292;28;20036;-85
2021/08/29 03:00:12;;;;;;;2.45;2.25;;;19.50;88.20;;;;;;5092219;28;20103;-85
2021/08/29 03:02:41;;;;;;;4.70;2.60;;;19.50;87.90;;;;;;5093419;28;20390;-85
2021/08/29 03:05:07;;;;;;;2.53;2.33;;;19.60;87.70;;;;;;5092178;28;20063;-85
2021/08/29 03:07:33;;;;;;;5.63;2.63;;;19.70;87.30;;;;;;5092190;28;20463;-84
2021/08/29 03:09:58;;;;;;;3.00;2.70;;;19.80;86.90;;;;;;5093129;28;20100;-85
2021/08/29 03:12:24;;;;;;;3.08;2.75;;;19.80;86.50;;;;;;5094972;28;20056;-85
2021/08/29 03:14:50;;;;;;;3.10;2.80;;;19.90;86.10;;;;;;5095816;28;20032;-85
2021/08/29 03:17:17;;;;;;;3.25;2.50;;;19.90;85.60;;;;;;5095767;28;20459;-85
2021/08/29 03:19:44;;;;;;;3.08;2.78;;;20.00;85.40;;;;;;5097300;28;20344;-85
2021/08/29 03:22:11;;;;;;;2.85;2.50;;;20.00;85.00;;;;;;5096971;28;20024;-85
2021/08/29 03:24:37;;;;;;;2.58;2.35;;;20.00;84.80;;;;;;5095739;28;20050;-86
2021/08/29 03:27:03;;;;;;;2.55;2.35;;;20.00;84.70;;;;;;5095687;28;20031;-86
2021/08/29 03:29:29;;;;;;;2.45;2.25;;;20.10;84.70;;;;;;5097023;28;20020;-85
2021/08/29 03:31:57;;;;;;;3.05;2.60;;;20.00;84.50;;;;;;5095263;28;20378;-85
2021/08/29 03:34:24;;;;;;;2.70;2.50;;;20.00;84.70;;;;;;5097136;28;20399;-85
2021/08/29 03:36:50;;;;;;;2.72;2.53;;;20.00;84.90;;;;;;5095186;28;20035;-85
2021/08/29 03:39:16;;;;;;;3.25;2.80;;;19.90;84.90;;;;;;5095275;28;20028;-85
2021/08/29 03:41:44;;;;;;;3.28;2.97;;;19.90;85.10;;;;;;5095401;28;20024;-86
2021/08/29 03:44:12;;;;;;;3.95;2.63;;;19.90;85.30;;;;;;5095561;28;20067;-85
2021/08/29 03:46:38;;;;;;;3.00;2.75;;;20.00;85.40;;;;;;5095357;28;20031;-85
2021/08/29 03:49:04;;;;;;;2.70;2.50;;;20.10;85.10;;;;;;5095086;28;20039;-86
2021/08/29 03:51:32;;;;;;;2.60;2.40;;;20.20;84.70;;;;;;5096324;28;20097;-86
2021/08/29 03:53:59;;;;;;;3.85;2.83;;;20.20;84.60;;;;;;5095171;28;20032;-86
2021/08/29 03:56:25;;;;;;;2.85;2.55;;;20.30;84.40;;;;;;5096683;28;20490;-86
2021/08/29 03:58:51;;;;;;;3.10;2.80;;;20.40;84.30;;;;;;5094905;28;20033;-86
2021/08/29 04:01:17;;;;;;;3.10;2.60;;;20.40;84.20;;;;;;5095289;28;20032;-86
2021/08/29 04:03:42;;;;;;;2.75;2.55;;;20.40;84.10;;;;;;5094870;28;20032;-86
2021/08/29 04:06:11;;;;;;;8.55;3.38;;;20.30;84.00;;;;;;5094779;28;20032;-86
2021/08/29 04:08:42;;;;;;;3.35;3.03;;;20.30;84.30;;;;;;5094869;28;20063;-86
2021/08/29 04:11:09;;;;;;;4.47;3.17;;;20.20;84.50;;;;;;5094861;28;20059;-85
2021/08/29 04:13:37;;;;;;;3.22;2.92;;;20.10;84.90;;;;;;5094735;28;20059;-85
2021/08/29 04:16:04;;;;;;;4.18;3.20;;;20.10;85.20;;;;;;5094597;28;20035;-86
2021/08/29 04:18:38;;;;;;;3.50;3.00;;;20.10;85.30;;;;;;5095535;28;20379;-86
2021/08/29 04:21:04;;;;;;;3.20;2.90;;;20.20;85.20;;;;;;5095692;28;20031;-85
2021/08/29 04:23:29;;;;;;;3.40;3.10;;;20.20;85.20;;;;;;5094821;28;20024;-86
2021/08/29 04:25:55;;;;;;;3.17;2.88;;;20.30;85.00;;;;;;5094827;28;20024;-85
2021/08/29 04:28:21;;;;;;;3.20;2.90;;;20.40;84.70;;;;;;5094388;28;20409;-85
2021/08/29 04:30:49;;;;;;;3.33;3.05;;;20.40;84.60;;;;;;5095845;28;20103;-85
2021/08/29 04:33:14;;;;;;;3.85;2.90;;;20.40;84.50;;;;;;5094294;28;20135;-85
2021/08/29 04:35:40;;;;;;;3.30;3.00;;;20.40;84.60;;;;;;5094437;28;20056;-85
2021/08/29 04:38:06;;;;;;;3.92;3.50;;;20.50;84.50;;;;;;5095387;28;20360;-85
2021/08/29 04:40:32;;;;;;;3.80;3.38;;;20.60;84.30;;;;;;5094150;28;20453;-85
2021/08/29 04:42:58;;;;;;;5.13;3.08;;;20.60;84.10;;;;;;5094105;28;20028;-85
2021/08/29 04:45:23;;;;;;;3.22;2.92;;;20.50;84.00;;;;;;5094134;28;20046;-85
2021/08/29 04:47:49;;;;;;;3.10;2.80;;;20.50;84.20;;;;;;5093870;28;20046;-85
2021/08/29 04:50:15;;;;;;;7.45;3.17;;;20.50;84.20;;;;;;5095130;28;20024;-85
2021/08/29 04:52:40;;;;;;;4.28;3.88;;;20.60;84.30;;;;;;5093861;28;20466;-85
2021/08/29 04:55:07;;;;;;;3.55;2.75;;;20.70;84.10;;;;;;5093917;28;20128;-85
2021/08/29 04:57:32;;;;;;;3.28;3.03;;;20.70;83.90;;;;;;5095221;28;20114;-85
2021/08/29 04:59:58;;;;;;;3.35;3.05;;;20.80;83.60;;;;;;5094980;28;20052;-85
2021/08/29 05:02:23;;;;;;;5.35;3.60;;;20.80;83.40;;;;;;5093666;28;20487;-85
2021/08/29 05:04:49;;;;;;;4.20;3.40;;;20.90;83.40;;;;;;5095175;28;20042;-85
2021/08/29 05:07:15;;;;;;;5.50;3.33;;;20.90;83.20;;;;;;5094947;28;20051;-85
2021/08/29 05:09:40;;;;;;;3.45;3.15;;;20.80;83.20;;;;;;5093690;28;20032;-85
2021/08/29 05:12:06;;;;;;;4.00;3.50;;;20.90;83.40;;;;;;5093392;28;20386;-85
2021/08/29 05:14:32;;;;;;;4.00;3.60;;;20.90;83.30;;;;;;5094646;28;20074;-85
2021/08/29 05:16:58;;;;;;;3.40;3.10;;;20.90;83.40;;;;;;5093303;28;20119;-85
2021/08/29 05:19:23;;;;;;;3.28;2.97;;;21.00;83.40;;;;;;5094926;28;20081;-85
2021/08/29 05:21:49;;;;;;;6.72;3.38;;;21.10;83.10;;;;;;5093851;28;20381;-85
2021/08/29 05:24:15;;;;;;;3.08;2.88;;;21.30;82.60;;;;;;5093359;28;20028;-85
2021/08/29 05:26:40;;;;;;;3.65;3.30;;;21.50;82.10;;;;;;5094420;28;20470;-85
2021/08/29 05:29:06;;;;;;;3.88;3.47;;;21.60;81.60;;;;;;5093371;28;20466;-85
2021/08/29 05:31:31;;;;;;;6.85;3.95;;;21.80;81.10;;;;;;5093248;28;20028;-85
2021/08/29 05:33:57;;;;;;;3.90;3.60;;;22.00;80.30;;;;;;5092470;28;20039;-85
2021/08/29 05:36:23;;;;;;;3.47;3.17;;;21.90;80.00;;;;;;5093204;28;20032;-85
2021/08/29 05:38:48;;;;;;;3.42;3.13;;;21.90;80.20;;;;;;5094346;28;20058;-85
2021/08/29 05:41:14;;;;;;;5.82;3.38;;;22.00;80.10;;;;;;5094204;28;20481;-85
2021/08/29 05:43:40;;;;;;;3.35;2.85;;;22.00;80.00;;;;;;5094148;28;20379;-85
2021/08/29 05:46:05;;;;;;;3.28;2.97;;;22.10;79.80;;;;;;5092729;28;20024;-85
2021/08/29 05:48:31;;;;;;;3.58;3.28;;;22.20;79.50;;;;;;5092993;28;20031;-85
2021/08/29 05:50:57;;;;;;;5.25;3.20;;;22.40;79.10;;;;;;5093342;28;20413;-85
2021/08/29 05:53:23;;;;;;;3.55;3.25;;;22.50;78.80;;;;;;5093018;28;20028;-85
2021/08/29 05:55:48;;;;;;;4.10;3.45;;;22.60;78.30;;;;;;5092567;28;20379;-85
2021/08/29 05:58:14;;;;;;;3.60;3.05;;;22.70;77.90;;;;;;5094151;28;20082;-85
2021/08/29 06:00:40;;;;;;;4.00;3.60;;;22.80;77.60;;;;;;5093612;28;20383;-85
2021/08/29 06:03:05;;;;;;;3.53;3.22;;;22.90;77.30;;;;;;5092747;28;20024;-86
2021/08/29 06:05:31;;;;;;;3.60;3.30;;;22.90;77.10;;;;;;5094090;28;20059;-86
2021/08/29 06:07:57;;;;;;;4.05;3.72;;;23.00;77.10;;;;;;5094218;28;20039;-86
2021/08/29 06:10:22;;;;;;;4.97;4.10;;;22.90;76.90;;;;;;5092465;28;20027;-86
2021/08/29 06:12:48;;;;;;;3.78;3.28;;;23.00;77.10;;;;;;5092127;28;20052;-86
2021/08/29 06:15:14;;;;;;;3.65;3.15;;;23.00;77.10;;;;;;5092535;28;20031;-85
2021/08/29 06:17:39;;;;;;;4.18;3.67;;;23.10;77.10;;;;;;5092589;28;20028;-85
2021/08/29 06:20:06;;;;;;;4.15;3.65;;;23.10;76.80;;;;;;5094079;28;20020;-86
2021/08/29 06:22:32;;;;;;;4.68;3.40;;;23.20;76.50;;;;;;5094192;28;20425;-86
2021/08/29 06:24:57;;;;;;;4.35;3.95;;;23.30;76.40;;;;;;5094481;28;20027;-85
2021/08/29 06:27:23;;;;;;;3.97;3.58;;;23.40;76.00;;;;;;5094091;28;20028;-86
2021/08/29 06:29:49;;;;;;;4.97;4.07;;;23.60;75.80;;;;;;5096427;28;20079;-85
2021/08/29 06:32:15;;;;;;;4.47;3.40;;;23.70;75.50;;;;;;5094449;28;20098;-86
2021/08/29 06:34:40;;;;;;;4.55;3.80;;;23.80;75.40;;;;;;5092736;28;20024;-86
2021/08/29 06:37:06;;;;;;;4.22;3.70;;;23.90;75.00;;;;;;5093674;28;20034;-86
2021/08/29 06:39:32;;;;;;;4.72;3.63;;;24.00;74.90;;;;;;5093869;28;20058;-85
2021/08/29 06:41:58;;;;;;;4.25;3.42;;;24.10;74.60;;;;;;5092371;28;20028;-85
2021/08/29 06:44:23;;;;;;;4.78;4.32;;;24.10;74.30;;;;;;5093434;28;20035;-86
2021/08/29 06:46:49;;;;;;;4.25;3.85;;;24.10;74.50;;;;;;5097775;28;20102;-85
2021/08/29 06:49:15;;;;;;;4.72;3.83;;;24.10;74.30;;;;;;5097529;28;20099;-85
2021/08/29 06:51:40;;;;;;;4.50;4.10;;;24.20;74.30;;;;;;5096286;28;20034;-85
2021/08/29 06:54:06;;;;;;;4.45;4.05;;;24.30;74.00;;;;;;5097544;28;20032;-86
2021/08/29 06:56:32;;;;;;;4.47;4.07;;;24.40;73.90;;;;;;5097380;28;20028;-86
2021/08/29 06:58:58;;;;;;;4.40;4.00;;;24.50;73.60;;;;;;5096017;28;20032;-86
2021/08/29 07:01:24;;;;;;;4.10;3.70;;;24.60;73.40;;;;;;5094874;28;20048;-86
2021/08/29 07:03:49;;;;;;;4.30;3.90;;;24.70;73.20;;;;;;5094712;28;20488;-87
2021/08/29 07:06:15;;;;;;;4.57;4.07;;;24.70;73.00;;;;;;5096407;28;20024;-88
2021/08/29 07:08:40;;;;;;;4.72;4.30;;;24.80;72.90;;;;;;5095432;28;20485;-87
2021/08/29 07:11:06;;;;;;;5.22;4.65;;;24.90;72.80;;;;;;5098108;28;20034;-88
2021/08/29 07:13:32;;;;;;;5.40;4.18;;;25.00;72.50;;;;;;5096356;28;20048;-88
2021/08/29 07:15:58;;;;;;;4.75;4.03;;;25.10;72.00;;;;;;5096919;28;20053;-87
2021/08/29 07:18:24;;;;;;;4.43;4.03;;;25.20;71.70;;;;;;5095376;28;20445;-87
2021/08/29 07:20:50;;;;;;;4.57;4.18;;;25.20;71.60;;;;;;5096123;28;20028;-88
2021/08/29 07:23:17;;;;;;;4.90;4.40;;;25.30;71.40;;;;;;5096562;28;20040;-88
2021/08/29 07:25:44;;;;;;;7.57;4.78;;;25.40;71.10;;;;;;5095697;28;20091;-88
2021/08/29 07:28:09;;;;;;;5.03;4.53;;;25.40;70.80;;;;;;5096232;28;20020;-88
2021/08/29 07:30:35;;;;;;;4.72;4.22;;;25.50;70.60;;;;;;5094636;28;20035;-88
2021/08/29 07:33:01;;;;;;;5.38;4.80;;;25.50;70.50;;;;;;5096724;28;20036;-88
2021/08/29 07:35:26;;;;;;;5.18;4.68;;;25.50;70.40;;;;;;5094775;28;20032;-91
2021/08/29 07:37:52;;;;;;;5.55;4.97;;;25.50;70.40;;;;;;5097512;28;20020;-88
2021/08/29 07:40:19;;;;;;;4.43;4.03;;;25.60;70.30;;;;;;5096977;28;20016;-88
2021/08/29 07:42:46;;;;;;;6.40;5.00;;;25.50;70.30;;;;;;5097730;28;20024;-89
2021/08/29 07:45:12;;;;;;;4.70;4.30;;;25.50;70.30;;;;;;5097590;28;20554;-89
2021/08/29 07:47:38;;;;;;;5.30;4.80;;;25.50;70.30;;;;;;5098504;28;20024;-89
2021/08/29 07:50:05;;;;;;;5.32;4.82;;;25.50;70.30;;;;;;5098893;28;20459;-88
2021/08/29 07:52:31;;;;;;;5.43;4.93;;;25.60;70.50;;;;;;5095803;28;20028;-88
2021/08/29 07:54:56;;;;;;;5.85;5.00;;;25.70;70.50;;;;;;5097664;28;20491;-87
2021/08/29 07:57:22;;;;;;;5.03;4.38;;;25.70;70.20;;;;;;5095470;28;20429;-89
2021/08/29 07:59:48;;;;;;;5.22;4.38;;;25.70;70.20;;;;;;5094796;28;20052;-89
2021/08/29 08:02:16;;;;;;;5.38;4.88;;;25.70;70.10;;;;;;5093409;28;20032;-87
2021/08/29 08:04:42;;;;;;;6.60;5.00;;;25.70;69.90;;;;;;5076425;28;20487;-88
2021/08/29 08:07:08;;;;;;;5.22;4.72;;;25.80;69.90;;;;;;5083992;28;20028;-90
2021/08/29 08:09:33;;;;;;;6.00;4.88;;;25.80;69.80;;;;;;5097022;28;20059;-89
2021/08/29 08:11:59;;;;;;;5.57;4.97;;;25.80;69.70;;;;;;5097041;28;20048;-89
2021/08/29 08:14:25;;;;;;;5.38;4.78;;;25.80;69.60;;;;;;5097607;28;20028;-88
2021/08/29 08:16:51;;;;;;;6.00;5.40;;;25.90;69.50;;;;;;5096399;28;20035;-88
2021/08/29 08:19:16;;;;;;;5.43;4.88;;;25.90;69.20;;;;;;5097553;28;20047;-88
2021/08/29 08:21:42;;;;;;;5.65;4.80;;;26.00;69.20;;;;;;5098667;28;20031;-89
2021/08/29 08:24:08;;;;;;;5.68;5.13;;;26.10;69.20;;;;;;5097671;28;20458;-89
2021/08/29 08:26:33;;;;;;;5.43;4.93;;;26.10;68.90;;;;;;5096836;28;20063;-87
2021/08/29 08:28:59;;;;;;;6.60;5.40;;;26.10;68.80;;;;;;5100589;28;20032;-88
2021/08/29 08:31:25;;;;;;;6.70;4.85;;;26.20;68.70;;;;;;5099056;28;20035;-88
2021/08/29 08:33:53;;;;;;;5.93;5.32;;;26.20;68.60;;;;;;5096891;28;20544;-88
2021/08/29 08:36:18;;;;;;;4.72;4.28;;;26.30;68.80;;;;;;5098051;28;20165;-86
2021/08/29 08:38:47;;;;;;;5.60;5.00;;;26.40;68.30;;;;;;5097894;28;20081;-89
2021/08/29 08:41:12;;;;;;;5.30;4.78;;;26.40;68.10;;;;;;5086535;28;20062;-89
2021/08/29 08:43:38;;;;;;;5.45;4.93;;;26.40;67.70;;;;;;5077794;28;20085;-89
2021/08/29 08:46:07;;;;;;;5.40;4.90;;;26.50;67.80;;;;;;5076371;28;20033;-89
2021/08/29 08:48:34;;;;;;;5.18;4.68;;;26.60;67.50;;;;;;5076695;28;20103;-90
2021/08/29 08:51:01;;;;;;;6.05;5.45;;;26.70;67.10;;;;;;5078550;28;20021;-88
2021/08/29 08:53:29;;;;;;;5.60;5.10;;;26.70;67.00;;;;;;5078746;28;20029;-88
2021/08/29 08:55:55;;;;;;;5.53;4.78;;;26.80;67.00;;;;;;5076125;28;20028;-88
2021/08/29 08:58:22;;;;;;;5.55;4.97;;;26.90;66.80;;;;;;5074540;28;20484;-89
2021/08/29 09:00:55;;;;;;;6.65;5.93;;;26.90;66.30;;;;;;5072535;28;20024;-89
2021/08/29 09:03:21;;;;;;;6.00;5.45;;;27.00;65.70;;;;;;5073812;28;20032;-89
2021/08/29 09:05:48;;;;;;;5.93;5.15;;;27.10;65.50;;;;;;5073530;28;20027;-89
2021/08/29 09:08:14;;;;;;;5.85;5.25;;;27.20;65.40;;;;;;5072071;28;20016;-89
2021/08/29 09:10:40;;;;;;;6.25;5.20;;;27.30;65.10;;;;;;5072816;28;20461;-89
2021/08/29 09:13:09;;;;;;;6.93;5.50;;;27.40;64.70;;;;;;5071906;28;20155;-89
2021/08/29 09:15:34;;;;;;;5.28;4.78;;;27.40;64.40;;;;;;5073969;28;20498;-89
2021/08/29 09:18:01;;;;;;;5.75;5.07;;;27.50;64.40;;;;;;5072336;28;20115;-89
2021/08/29 09:20:28;;;;;;;6.45;5.82;;;27.60;64.20;;;;;;5080017;28;20024;-88
2021/08/29 09:23:06;;;;;;;9.13;5.25;;;27.70;63.80;;;;;;5094094;28;20492;-88
2021/08/29 09:25:40;;;;;;;6.10;5.22;;;27.70;63.70;;;;;;5089254;28;20032;-90
2021/08/29 09:28:23;;;;;;;6.18;5.22;;;27.80;63.30;;;;;;5091674;28;20032;-89
2021/08/29 09:30:49;;;;;;;5.85;5.25;;;27.80;62.90;;;;;;5071053;28;20036;-88
2021/08/29 09:33:16;;;;;;;6.28;5.60;;;27.90;62.80;;;;;;5072369;28;20143;-90
2021/08/29 09:35:43;;;;;;;6.00;4.97;;;27.90;62.50;;;;;;5092097;28;20032;-91
2021/08/29 09:38:16;;;;;;;5.53;5.03;;;27.90;62.60;;;;;;5093907;28;20065;-90
2021/08/29 09:40:45;;;;;;;6.32;5.70;;;27.90;62.40;;;;;;5092701;28;20085;-90
2021/08/29 09:43:11;;;;;;;6.97;5.57;;;28.00;62.20;;;;;;5092723;28;20024;-90
2021/08/29 09:46:05;;;;;;;7.00;6.30;;;28.00;62.00;;;;;;5093847;28;20386;-91
2021/08/29 09:48:31;;;;;;;6.07;5.47;;;28.10;61.10;;;;;;5092210;28;20120;-90
2021/08/29 09:50:56;;;;;;;5.80;5.30;;;28.00;61.60;;;;;;5093555;28;20051;-90
2021/08/29 09:53:24;;;;;;;6.05;5.45;;;28.00;61.60;;;;;;5094025;28;20043;-90
2021/08/29 09:55:51;;;;;;;6.85;5.53;;;28.00;61.70;;;;;;5085465;28;20024;-90
2021/08/29 09:58:26;;;;;;;6.35;4.82;;;28.00;61.70;;;;;;5092396;28;20032;-90
2021/08/29 10:01:17;;;;;;;5.22;4.72;;;28.00;61.50;;;;;;5094164;28;20459;-90
2021/08/29 10:03:51;;;;;;;6.25;5.65;;;28.10;61.70;;;;;;5092392;28;20043;-90
2021/08/29 10:06:27;;;;;;;5.80;5.13;;;28.20;61.30;;;;;;5092596;28;20016;-90
2021/08/29 10:09:01;;;;;;;6.00;5.38;;;28.20;61.30;;;;;;5084506;28;20020;-90
2021/08/29 10:11:30;;;;;;;5.60;5.03;;;28.30;61.30;;;;;;5091031;28;20108;-90
2021/08/29 10:13:58;;;;;;;6.18;5.57;;;28.40;61.20;;;;;;5092382;28;20048;-90
2021/08/29 10:16:27;;;;;;;7.45;5.40;;;28.50;60.90;;;;;;5094108;28;20027;-88
2021/08/29 10:18:58;;;;;;;6.28;5.68;;;28.60;60.40;;;;;;5070784;28;20028;-90
2021/08/29 10:21:30;;;;;;;6.65;5.93;;;28.80;60.10;;;;;;5089092;28;20027;-91
2021/08/29 10:23:59;;;;;;;7.95;5.60;;;28.90;60.00;;;;;;5091929;28;20114;-90
2021/08/29 10:26:30;;;;;;;6.05;5.45;;;29.00;59.90;;;;;;5092743;28;20033;-91
2021/08/29 10:28:56;;;;;;;6.68;5.97;;;29.10;59.50;;;;;;5089248;28;20039;-91
2021/08/29 10:31:28;;;;;;;6.30;5.63;;;29.20;59.20;;;;;;5092424;28;20482;-91
2021/08/29 10:33:55;;;;;;;8.75;5.50;;;29.20;58.70;;;;;;5090028;28;20047;-91
2021/08/29 10:36:22;;;;;;;6.10;5.50;;;29.20;58.40;;;;;;5091093;28;20028;-91
2021/08/29 10:38:49;;;;;;;6.55;5.93;;;29.20;58.40;;;;;;5088914;28;20032;-87
2021/08/29 10:41:20;;;;;;;5.75;5.15;;;29.10;58.20;;;;;;5088140;28;20024;-89
2021/08/29 10:43:48;;;;;;;6.93;6.22;;;29.10;58.50;;;;;;5073074;28;20024;-87
2021/08/29 10:46:26;;;;;;;6.28;5.68;;;29.10;58.50;;;;;;5089597;28;20020;-89
2021/08/29 10:48:53;;;;;;;5.97;5.38;;;29.20;58.10;;;;;;5091308;28;20035;-87
2021/08/29 10:51:24;;;;;;;6.63;5.85;;;29.20;58.30;;;;;;5089956;28;20073;-84
2021/08/29 10:53:52;;;;;;;6.50;5.80;;;29.30;58.40;;;;;;5089080;28;20046;-83
2021/08/29 10:56:18;;;;;;;6.18;5.55;;;29.40;58.30;;;;;;5092046;28;20099;-83
2021/08/29 10:58:45;;;;;;;6.53;5.90;;;29.50;58.10;;;;;;5094603;28;20063;-84
2021/08/29 11:01:38;;;;;;;6.53;5.75;;;29.60;58.00;;;;;;5089452;28;20047;-87
2021/08/29 11:04:39;;;;;;;8.35;6.35;;;29.70;57.50;;;;;;5085241;28;20025;-95
2021/08/29 11:07:08;;;;;;;7.07;6.10;;;29.70;56.40;;;;;;5032574;28;20033;-91
2021/08/29 11:12:12;;;;;;;6.55;5.45;;;29.70;57.30;;;;;;5080655;28;20052;-92
2021/08/29 11:14:51;;;;;;;6.88;6.18;;;29.70;57.30;;;;;;5087145;28;20467;-94
2021/08/29 11:17:33;;;;;;;6.80;6.10;;;29.80;56.80;;;;;;5088669;28;20040;-96
2021/08/29 11:20:11;;;;;;;6.80;6.10;;;29.90;56.40;;;;;;5084883;28;20459;-94
2021/08/29 11:23:27;;;;;;;6.90;6.15;;;29.80;56.30;;;;;;5088564;28;20111;-94
2021/08/29 11:26:28;;;;;;;7.05;6.35;;;29.80;55.90;;;;;;5080815;28;20047;-94
2021/08/29 11:29:18;;;;;;;7.78;6.80;;;29.80;55.40;;;;;;5101985;28;20036;-95
2021/08/29 11:32:12;;;;;;;;;;;;;;;;;;;;;
2021/08/29 11:35:14;;;;;;;7.82;6.65;;;29.80;56.20;;;;;;5095411;28;20535;-92
2021/08/29 11:37:40;;;;;;;6.50;5.90;;;29.80;56.30;;;;;;5099347;28;20055;-91
2021/08/29 11:40:23;;;;;;;7.95;6.22;;;29.80;56.50;;;;;;5097176;28;20060;-93
2021/08/29 11:43:26;;;;;;;12.48;6.47;;;29.80;56.50;;;;;;5086595;28;20128;-96
2021/08/29 11:50:04;;;;;;;7.38;6.68;;;29.60;56.50;;;;;;5090994;28;20092;-95
2021/08/29 11:52:39;;;;;;;7.57;6.88;;;29.50;56.70;;;;;;5083316;28;20016;-95
2021/08/29 11:55:56;;;;;;;8.60;7.57;;;29.50;57.30;;;;;;5279921;22;20054;-94
2021/08/29 11:58:54;;;;;;;8.68;7.88;;;29.60;57.50;;;;;;5004253;28;20519;-95
2021/08/29 12:01:26;;;;;;;7.68;6.78;;;29.60;57.20;;;;;;4961702;28;20064;-93
2021/08/29 12:04:21;;;;;;;8.85;8.02;;;29.80;57.40;;;;;;5000308;28;20034;-94
2021/08/29 12:07:05;;;;;;;8.77;7.97;;;29.90;57.10;;;;;;4984855;28;20074;-96
2021/08/29 12:09:55;;;;;;;;;;;;;;;;;;;;;
2021/08/29 12:12:26;;;;;;;7.70;6.88;;;30.20;56.80;;;;;;4988927;28;20202;-95
2021/08/29 12:15:00;;;;;;;9.52;8.15;;;30.30;56.70;;;;;;4990641;28;20038;-95
2021/08/29 12:17:31;;;;;;;7.57;6.88;;;30.30;56.60;;;;;;4996803;28;20551;-95
2021/08/29 12:27:22;;;;;;;7.65;6.95;;;30.60;56.00;;;;;;4943550;29;20038;-96
2021/08/29 12:30:18;;;;;;;;;;;;;;;;;;;;;
2021/08/29 12:33:17;;;;;;;;;;;;;;;;;;;;;
2021/08/29 12:36:56;;;;;;;;;;;;;;;;;;;;;
2021/08/29 12:40:23;;;;;;;;;;;;;;;;;;;;;
2021/08/29 12:43:11;;;;;;;7.57;6.30;;;30.90;56.40;;;;;;4920026;28;20046;-91
2021/08/29 12:45:38;;;;;;;8.65;7.18;;;31.20;56.30;;;;;;4965157;28;20034;-92
2021/08/29 12:48:08;;;;;;;8.75;7.85;;;31.40;55.80;;;;;;4935005;29;20034;-94
2021/08/29 12:58:07;;;;;;;7.60;6.90;;;31.80;55.00;;;;;;4872236;29;20057;-92
2021/08/29 13:01:23;;;;;;;7.40;6.70;;;31.90;55.40;;;;;;4857555;29;20033;-93
2021/08/29 13:08:00;;;;;;;;;;;;;;;;;;;;;
2021/08/29 13:14:11;;;;;;;7.85;7.05;;;31.90;54.40;;;;;;4928952;29;20412;-95
2021/08/29 13:16:46;;;;;;;9.35;8.52;;;31.70;53.80;;;;;;4929555;29;20079;-96
2021/08/29 13:19:53;;;;;;;9.40;7.80;;;31.60;54.00;;;;;;4945005;28;20035;-96
2021/08/29 13:22:33;;;;;;;7.97;7.25;;;31.40;54.30;;;;;;4949338;28;20051;-95
2021/08/29 13:25:19;;;;;;;9.70;8.05;;;31.30;54.60;;;;;;4947520;29;20031;-96
2021/08/29 13:27:54;;;;;;;9.18;8.27;;;31.40;54.80;;;;;;4941240;28;20475;-94
2021/08/29 13:30:32;;;;;;;;;;;;;;;;;;;;;
2021/08/29 13:33:00;;;;;;;8.60;7.78;;;31.70;54.70;;;;;;4946289;29;20047;-95
2021/08/29 13:35:36;;;;;;;8.45;7.63;;;31.90;54.40;;;;;;4955352;28;20027;-94
2021/08/29 13:38:14;;;;;;;8.73;7.93;;;32.00;54.00;;;;;;4956658;28;20074;-94